createdAt,value
2019-04-10T00:01:30.000Z,100841.51
2019-04-10T00:03:56.671Z,100850.87
2019-04-10T00:06:23.648Z,100856.73
2019-04-10T00:08:49.262Z,100849.89
2019-04-10T00:14:08.286Z,100848.13
2019-04-10T00:16:33.817Z,100851.65
2019-04-10T00:18:59.455Z,100854.16
2019-04-10T00:21:25.286Z,100856.16
2019-04-10T00:23:51.304Z,100858.52
2019-04-10T00:26:17.408Z,100854.85
2019-04-10T00:28:43.627Z,100862.22
2019-04-10T00:31:09.530Z,100859.43
2019-04-10T00:33:35.289Z,100860.66
2019-04-10T00:36:01.590Z,100859.94
2019-04-10T00:38:27.101Z,100859.94
2019-04-10T00:40:52.589Z,100864.83
2019-04-10T00:43:19.051Z,100856.01
2019-04-10T00:45:44.532Z,100863.16
2019-04-10T00:48:10.025Z,100858.19
2019-04-10T00:50:36.883Z,100866.30
2019-04-10T00:53:02.975Z,100859.63
2019-04-10T00:55:28.835Z,100860.81
2019-04-10T00:57:54.824Z,100860.73
2019-04-10T01:00:21.955Z,100872.30
2019-04-10T01:02:47.833Z,100870.13
2019-04-10T01:05:13.390Z,100856.06
2019-04-10T01:07:42.479Z,100862.59
2019-04-10T01:10:08.154Z,100870.36
2019-04-10T01:12:34.227Z,100866.77
2019-04-10T01:15:00.271Z,100863.34
2019-04-10T01:17:26.308Z,100857.86
2019-04-10T01:19:52.725Z,100861.30
2019-04-10T01:22:19.038Z,100867.03
2019-04-10T01:24:44.714Z,100863.48
2019-04-10T01:27:10.461Z,100864.84
2019-04-10T01:29:35.930Z,100867.61
2019-04-10T01:32:01.698Z,100864.28
2019-04-10T01:34:27.558Z,100865.03
2019-04-10T01:36:53.060Z,100863.67
2019-04-10T01:39:24.403Z,100866.70
2019-04-10T01:41:50.201Z,100864.23
2019-04-10T01:44:15.790Z,100873.62
2019-04-10T01:46:42.325Z,100867.73
2019-04-10T01:49:07.939Z,100861.44
2019-04-10T01:51:33.410Z,100867.30
2019-04-10T01:53:59.140Z,100863.66
2019-04-10T01:56:30.261Z,100869.22
2019-04-10T01:58:52.167Z,100862.88
2019-04-10T02:01:28.393Z,100857.91
2019-04-10T02:03:54.270Z,100861.03
2019-04-10T02:06:21.009Z,100860.20
2019-04-10T02:08:47.795Z,100866.59
2019-04-10T02:11:13.566Z,100869.78
2019-04-10T02:13:39.315Z,100874.64
2019-04-10T02:16:06.143Z,100860.78
2019-04-10T02:18:31.858Z,100872.32
2019-04-10T02:20:57.699Z,100866.06
2019-04-10T02:23:23.173Z,100869.86
2019-04-10T02:25:49.374Z,100873.67
2019-04-10T02:28:15.337Z,100870.63
2019-04-10T02:30:41.885Z,100869.20
2019-04-10T02:33:08.483Z,100873.80
2019-04-10T02:35:36.047Z,100870.52
2019-04-10T02:38:24.480Z,100879.76
2019-04-10T02:40:28.972Z,100882.86
2019-04-10T02:42:54.812Z,100871.88
2019-04-10T02:45:21.952Z,100875.59
2019-04-10T02:47:47.765Z,100870.41
2019-04-10T02:50:14.250Z,100879.53
2019-04-10T02:52:41.345Z,100881.95
2019-04-10T02:55:09.472Z,100891.88
2019-04-10T02:57:36.915Z,100878.39
2019-04-10T03:00:03.795Z,100874.56
2019-04-10T03:02:31.139Z,100886.07
2019-04-10T03:04:57.320Z,100880.76
2019-04-10T03:07:24.042Z,100884.91
2019-04-10T03:10:05.031Z,100886.13
2019-04-10T03:12:17.349Z,100890.09
2019-04-10T03:14:46.945Z,100895.08
2019-04-10T03:17:10.639Z,100892.34
2019-04-10T03:19:36.102Z,100887.34
2019-04-10T03:22:01.882Z,100887.80
2019-04-10T03:24:27.508Z,100889.95
2019-04-10T03:26:54.107Z,100897.02
2019-04-10T03:29:20.077Z,100890.84
2019-04-10T03:31:52.987Z,100895.47
2019-04-10T03:34:25.261Z,100899.08
2019-04-10T03:36:50.292Z,100903.19
2019-04-10T03:39:15.778Z,100902.00
2019-04-10T03:41:42.191Z,100908.84
2019-04-10T03:44:08.131Z,100903.69
2019-04-10T03:46:33.547Z,100908.67
2019-04-10T03:48:58.926Z,100907.83
2019-04-10T03:51:24.828Z,100905.57
2019-04-10T03:53:50.797Z,100912.95
2019-04-10T03:56:16.542Z,100912.46
2019-04-10T03:58:42.061Z,100913.81
2019-04-10T04:01:07.505Z,100911.58
2019-04-10T04:03:33.134Z,100923.39
2019-04-10T04:06:00.078Z,100928.31
2019-04-10T04:08:25.772Z,100918.56
2019-04-10T04:10:51.340Z,100920.27
2019-04-10T04:13:17.461Z,100908.31
2019-04-10T04:15:52.626Z,100920.48
2019-04-10T04:18:19.189Z,100917.39
2019-04-10T04:20:45.384Z,100916.00
2019-04-10T04:23:11.643Z,100922.33
2019-04-10T04:25:37.154Z,100921.13
2019-04-10T04:28:02.967Z,100923.88
2019-04-10T04:30:30.429Z,100923.63
2019-04-10T04:32:56.421Z,100929.45
2019-04-10T04:35:22.266Z,100930.00
2019-04-10T04:37:48.432Z,100930.04
2019-04-10T04:40:14.280Z,100931.72
2019-04-10T04:42:40.718Z,100933.60
2019-04-10T04:45:06.784Z,100936.31
2019-04-10T04:47:33.328Z,100941.95
2019-04-10T04:49:59.233Z,100943.13
2019-04-10T04:52:25.802Z,100953.11
2019-04-10T04:54:51.259Z,100951.81
2019-04-10T04:57:17.073Z,100955.36
2019-04-10T04:59:42.805Z,100953.63
2019-04-10T05:02:08.250Z,100956.81
2019-04-10T05:04:35.546Z,100969.17
2019-04-10T05:07:04.275Z,100964.81
2019-04-10T05:09:36.964Z,100968.97
2019-04-10T05:11:58.600Z,100968.88
2019-04-10T05:14:27.206Z,100975.01
2019-04-10T05:16:53.160Z,100977.14
2019-04-10T05:19:19.009Z,100984.06
2019-04-10T05:21:44.364Z,100984.59
2019-04-10T05:24:10.234Z,100996.62
2019-04-10T05:26:44.836Z,100990.19
2019-04-10T05:29:11.119Z,100992.39
2019-04-10T05:31:36.728Z,100998.45
2019-04-10T05:34:03.039Z,101008.09
2019-04-10T05:36:29.331Z,101007.97
2019-04-10T05:38:55.966Z,101012.07
2019-04-10T05:41:25.880Z,101014.85
2019-04-10T05:43:51.687Z,101020.64
2019-04-10T05:46:17.181Z,101020.39
2019-04-10T05:48:42.508Z,101028.22
2019-04-10T05:51:09.075Z,101027.89
2019-04-10T05:53:34.890Z,101025.32
2019-04-10T05:56:01.511Z,101033.48
2019-04-10T05:58:27.316Z,101039.16
2019-04-10T06:00:53.412Z,101039.23
2019-04-10T06:03:18.912Z,101032.38
2019-04-10T06:05:44.611Z,101041.28
2019-04-10T06:08:10.703Z,101041.95
2019-04-10T06:10:37.170Z,101036.43
2019-04-10T06:13:02.683Z,101040.53
2019-04-10T06:15:28.749Z,101028.33
2019-04-10T06:17:54.560Z,101043.00
2019-04-10T06:20:20.925Z,101038.68
2019-04-10T06:22:47.332Z,101039.41
2019-04-10T06:25:15.723Z,101038.31
2019-04-10T06:27:40.870Z,101040.33
2019-04-10T06:30:07.857Z,101046.52
2019-04-10T06:32:34.614Z,101047.58
2019-04-10T06:35:01.949Z,101047.09
2019-04-10T06:37:28.336Z,101045.61
2019-04-10T06:40:05.040Z,101049.84
2019-04-10T06:42:20.977Z,101043.08
2019-04-10T06:44:46.466Z,101048.06
2019-04-10T06:47:11.993Z,101045.42
2019-04-10T06:49:38.610Z,101040.63
2019-04-10T06:52:04.464Z,101046.57
2019-04-10T06:54:31.008Z,101043.83
2019-04-10T06:56:56.649Z,101055.83
2019-04-10T06:59:23.323Z,101049.23
2019-04-10T07:01:54.551Z,101053.34
2019-04-10T07:04:21.899Z,101048.23
2019-04-10T07:06:57.082Z,101051.31
2019-04-10T07:09:21.441Z,101053.13
2019-04-10T07:11:50.033Z,101049.87
2019-04-10T07:14:14.413Z,101057.10
2019-04-10T07:16:40.346Z,101047.50
2019-04-10T07:19:08.793Z,101047.50
2019-04-10T07:21:35.545Z,101054.37
2019-04-10T07:24:04.955Z,101057.65
2019-04-10T07:26:37.803Z,101064.30
2019-04-10T07:28:58.661Z,101073.56
2019-04-10T07:31:23.487Z,101071.53
2019-04-10T07:33:50.819Z,101068.09
2019-04-10T07:36:16.760Z,101072.89
2019-04-10T07:38:43.329Z,101075.11
2019-04-10T07:41:14.362Z,101079.23
2019-04-10T07:43:36.749Z,101083.20
2019-04-10T07:46:02.622Z,101086.09
2019-04-10T07:48:29.343Z,101089.17
2019-04-10T07:50:55.800Z,101092.45
2019-04-10T07:53:22.548Z,101095.45
2019-04-10T07:55:58.428Z,101093.27
2019-04-10T07:58:15.448Z,101102.52
2019-04-10T08:00:41.216Z,101098.75
2019-04-10T08:03:06.798Z,101092.77
2019-04-10T08:05:33.259Z,101102.22
2019-04-10T08:07:59.108Z,101099.89
2019-04-10T08:10:24.806Z,101094.41
2019-04-10T08:12:53.628Z,101102.28
2019-04-10T08:15:18.909Z,101098.98
2019-04-10T08:17:44.580Z,101100.91
2019-04-10T08:20:10.052Z,101099.58
2019-04-10T08:22:37.119Z,101102.69
2019-04-10T08:25:04.295Z,101099.48
2019-04-10T08:27:29.996Z,101102.47
2019-04-10T08:29:55.514Z,101100.95
2019-04-10T08:32:21.609Z,101101.05
2019-04-10T08:34:47.273Z,101098.86
2019-04-10T08:37:12.748Z,101108.05
2019-04-10T08:39:44.035Z,101114.44
2019-04-10T08:42:06.395Z,101113.64
2019-04-10T08:44:32.066Z,101115.20
2019-04-10T08:46:58.237Z,101106.24
2019-04-10T08:49:24.768Z,101110.27
2019-04-10T08:51:50.662Z,101120.12
2019-04-10T08:54:16.345Z,101117.77
2019-04-10T08:56:42.813Z,101117.56
2019-04-10T08:59:08.317Z,101120.04
2019-04-10T09:01:34.147Z,101111.27
2019-04-10T09:03:59.626Z,101113.34
2019-04-10T09:06:25.499Z,101110.03
2019-04-10T09:08:51.003Z,101110.37
2019-04-10T09:11:25.568Z,101113.95
2019-04-10T09:13:44.425Z,101113.55
2019-04-10T09:16:10.090Z,101119.94
2019-04-10T09:18:35.483Z,101126.77
2019-04-10T09:21:00.982Z,101130.08
2019-04-10T09:23:37.405Z,101122.77
2019-04-10T09:25:53.596Z,101120.68
2019-04-10T09:28:19.198Z,101120.97
2019-04-10T09:30:45.256Z,101119.22
2019-04-10T09:33:21.271Z,101128.50
2019-04-10T09:35:38.468Z,101123.04
2019-04-10T09:38:04.255Z,101122.54
2019-04-10T09:40:30.083Z,101123.67
2019-04-10T09:42:55.616Z,101132.20
2019-04-10T09:45:21.996Z,101129.81
2019-04-10T09:47:48.263Z,101118.64
2019-04-10T09:50:15.029Z,101116.86
2019-04-10T09:52:40.750Z,101118.52
2019-04-10T09:55:07.608Z,101112.94
2019-04-10T09:57:33.056Z,101117.23
2019-04-10T09:59:58.468Z,101107.53
2019-04-10T10:02:23.957Z,101100.83
2019-04-10T10:04:50.448Z,101113.77
2019-04-10T10:07:26.320Z,101107.45
2019-04-10T10:09:52.092Z,101107.37
2019-04-10T10:12:18.007Z,101099.60
2019-04-10T10:14:44.297Z,101100.67
2019-04-10T10:17:10.651Z,101100.19
2019-04-10T10:19:42.612Z,101107.63
2019-04-10T10:22:09.260Z,101094.96
2019-04-10T10:24:35.053Z,101088.10
2019-04-10T10:27:01.814Z,101105.25
2019-04-10T10:29:28.058Z,101104.72
2019-04-10T10:31:54.980Z,101096.25
2019-04-10T10:34:20.692Z,101103.62
2019-04-10T10:36:50.671Z,101103.75
2019-04-10T10:39:21.211Z,101111.59
2019-04-10T10:41:46.854Z,101110.34
2019-04-10T10:44:13.117Z,101102.31
2019-04-10T10:46:39.723Z,101109.73
2019-04-10T10:49:06.264Z,101098.81
2019-04-10T10:51:32.794Z,101098.11
2019-04-10T10:54:01.440Z,101112.52
2019-04-10T10:56:26.485Z,101106.52
2019-04-10T10:58:53.175Z,101099.08
2019-04-10T11:01:19.972Z,101113.20
2019-04-10T11:03:46.591Z,101110.86
2019-04-10T11:06:13.265Z,101106.33
2019-04-10T11:08:39.897Z,101104.08
2019-04-10T11:11:06.238Z,101094.42
2019-04-10T11:13:33.125Z,101102.72
2019-04-10T11:16:03.677Z,101106.31
2019-04-10T11:18:26.539Z,101104.22
2019-04-10T11:20:52.379Z,101113.15
2019-04-10T11:23:18.243Z,101125.44
2019-04-10T11:25:44.344Z,101115.78
2019-04-10T11:28:10.259Z,101119.99
2019-04-10T11:30:36.238Z,101115.52
2019-04-10T11:33:02.588Z,101118.76
2019-04-10T11:35:29.014Z,101110.35
2019-04-10T11:37:59.104Z,101107.67
2019-04-10T11:40:23.539Z,101116.02
2019-04-10T11:42:51.530Z,101113.09
2019-04-10T11:45:19.042Z,101117.25
2019-04-10T11:47:45.001Z,101112.94
2019-04-10T11:52:45.246Z,101116.80
2019-04-10T11:57:35.704Z,101120.05
2019-04-10T12:00:04.306Z,101120.98
2019-04-10T12:02:32.066Z,101119.91
2019-04-10T12:05:01.618Z,101128.92
2019-04-10T12:12:19.514Z,101122.23
2019-04-10T12:14:45.867Z,101142.42
2019-04-10T12:17:12.183Z,101122.62
2019-04-10T12:19:38.385Z,101136.42
2019-04-10T12:22:05.408Z,101125.19
2019-04-10T12:24:32.164Z,101129.53
2019-04-10T12:26:58.533Z,101125.39
2019-04-10T12:29:24.674Z,101119.85
2019-04-10T12:31:50.338Z,101118.03
2019-04-10T12:34:16.246Z,101123.56
2019-04-10T12:36:42.703Z,101120.99
2019-04-10T12:39:10.103Z,101127.47
2019-04-10T12:41:35.799Z,101122.64
2019-04-10T12:44:01.226Z,101125.11
2019-04-10T12:46:26.819Z,101128.63
2019-04-10T12:48:52.741Z,101124.47
2019-04-10T12:51:19.317Z,101126.39
2019-04-10T12:53:45.591Z,101119.51
2019-04-10T12:56:11.115Z,101128.70
2019-04-10T12:58:37.130Z,101122.17
2019-04-10T13:01:03.107Z,101123.58
2019-04-10T13:03:29.402Z,101132.11
2019-04-10T13:05:55.650Z,101129.46
2019-04-10T13:08:26.817Z,101130.48
2019-04-10T13:10:48.678Z,101116.42
2019-04-10T13:13:14.169Z,101128.52
2019-04-10T13:15:39.758Z,101121.22
2019-04-10T13:18:05.964Z,101119.68
2019-04-10T13:20:31.686Z,101126.29
2019-04-10T13:22:58.273Z,101125.23
2019-04-10T13:25:24.325Z,101125.53
2019-04-10T13:27:50.802Z,101119.99
2019-04-10T13:30:16.652Z,101120.24
2019-04-10T13:32:42.530Z,101118.25
2019-04-10T13:35:08.187Z,101118.13
2019-04-10T13:37:34.059Z,101132.94
2019-04-10T13:39:59.571Z,101123.62
2019-04-10T13:42:25.376Z,101118.66
2019-04-10T13:44:51.245Z,101122.22
2019-04-10T13:47:17.503Z,101126.23
2019-04-10T13:49:44.230Z,101117.09
2019-04-10T13:52:09.981Z,101119.66
2019-04-10T13:54:35.479Z,101124.81
2019-04-10T13:57:01.499Z,101124.63
2019-04-10T13:59:27.008Z,101119.55
2019-04-10T14:01:56.625Z,101124.41
2019-04-10T14:04:22.924Z,101121.22
2019-04-10T14:06:49.361Z,101124.34
2019-04-10T14:09:34.931Z,101134.77
2019-04-10T14:11:51.428Z,101136.44
2019-04-10T14:14:18.284Z,101131.00
2019-04-10T14:16:44.675Z,101119.44
2019-04-10T14:19:12.923Z,101134.75
2019-04-10T14:21:38.739Z,101136.70
2019-04-10T14:24:05.339Z,101137.14
2019-04-10T14:26:46.805Z,101128.53
2019-04-10T14:29:09.928Z,101137.29
2019-04-10T14:31:41.175Z,101128.37
2019-04-10T14:34:07.216Z,101128.80
2019-04-10T14:36:48.860Z,101130.18
2019-04-10T14:39:26.168Z,101139.61
2019-04-10T14:41:53.966Z,101142.03
2019-04-10T14:44:20.665Z,101144.73
2019-04-10T14:46:50.117Z,101146.92
2019-04-10T14:49:21.829Z,101146.00
2019-04-10T14:51:50.959Z,101145.05
2019-04-10T14:54:17.038Z,101145.98
2019-04-10T14:56:42.866Z,101150.20
2019-04-10T14:59:09.290Z,101156.84
2019-04-10T15:01:36.576Z,101158.62
2019-04-10T15:04:02.738Z,101153.48
2019-04-10T15:06:29.110Z,101153.41
2019-04-10T15:08:55.518Z,101158.23
2019-04-10T15:11:26.690Z,101148.22
2019-04-10T15:14:07.675Z,101157.43
2019-04-10T15:16:33.549Z,101152.88
2019-04-10T15:19:00.332Z,101157.63
2019-04-10T15:21:26.953Z,101159.99
2019-04-10T15:23:53.197Z,101161.89
2019-04-10T15:26:19.754Z,101168.79
2019-04-10T15:28:45.984Z,101164.17
2019-04-10T15:31:12.620Z,101163.31
2019-04-10T15:33:39.326Z,101164.41
2019-04-10T15:36:07.355Z,101175.25
2019-04-10T15:38:33.900Z,101169.69
2019-04-10T15:41:00.887Z,101171.78
2019-04-10T15:43:27.895Z,101168.91
2019-04-10T15:45:54.661Z,101173.02
2019-04-10T15:48:20.922Z,101174.78
2019-04-10T15:50:47.613Z,101166.11
2019-04-10T15:53:13.380Z,101179.50
2019-04-10T15:55:40.222Z,101176.90
2019-04-10T15:58:06.844Z,101175.48
2019-04-10T16:00:33.003Z,101184.99
2019-04-10T16:02:58.546Z,101190.77
2019-04-10T16:05:24.206Z,101184.35
2019-04-10T16:07:51.787Z,101205.25
2019-04-10T16:10:39.389Z,101184.62
2019-04-10T16:13:14.461Z,101191.45
2019-04-10T16:15:48.107Z,101193.25
2019-04-10T16:18:18.990Z,101192.95
2019-04-10T16:20:45.217Z,101198.48
2019-04-10T16:23:14.354Z,101195.09
2019-04-10T16:25:43.295Z,101198.98
2019-04-10T16:28:15.807Z,101207.05
2019-04-10T16:30:41.523Z,101198.25
2019-04-10T16:33:07.151Z,101192.33
2019-04-10T16:35:36.596Z,101194.75
2019-04-10T16:38:02.800Z,101195.92
2019-04-10T16:40:32.257Z,101209.61
2019-04-10T16:42:59.242Z,101204.17
2019-04-10T16:45:30.646Z,101206.15
2019-04-10T16:48:08.813Z,101213.70
2019-04-10T16:50:34.295Z,101214.08
2019-04-10T16:53:01.225Z,101217.54
2019-04-10T16:55:26.955Z,101220.58
2019-04-10T16:57:53.494Z,101221.81
2019-04-10T17:00:22.097Z,101224.53
2019-04-10T17:02:50.663Z,101230.64
2019-04-10T17:05:16.536Z,101226.82
2019-04-10T17:07:43.216Z,101236.63
2019-04-10T17:10:17.698Z,101234.12
2019-04-10T17:12:38.513Z,101234.00
2019-04-10T17:15:06.333Z,101237.34
2019-04-10T17:17:36.745Z,101237.08
2019-04-10T17:20:02.476Z,101236.34
2019-04-10T17:22:34.357Z,101249.20
2019-04-10T17:24:56.300Z,101244.17
2019-04-10T17:27:23.546Z,101254.23
2019-04-10T17:29:49.966Z,101250.43
2019-04-10T17:32:15.648Z,101250.35
2019-04-10T17:34:41.393Z,101240.12
2019-04-10T17:37:07.576Z,101254.50
2019-04-10T17:39:41.672Z,101260.21
2019-04-10T17:42:08.136Z,101266.88
2019-04-10T17:44:34.017Z,101259.21
2019-04-10T17:46:59.703Z,101267.75
2019-04-10T17:49:25.823Z,101265.44
2019-04-10T17:51:52.353Z,101263.97
2019-04-10T17:54:18.130Z,101278.80
2019-04-10T17:56:44.951Z,101268.52
2019-04-10T17:59:10.959Z,101282.00
2019-04-10T18:01:37.098Z,101281.25
2019-04-10T18:04:03.683Z,101288.11
2019-04-10T18:06:31.427Z,101302.11
2019-04-10T18:08:57.183Z,101300.00
2019-04-10T18:11:26.296Z,101301.87
2019-04-10T18:13:53.071Z,101302.82
2019-04-10T18:16:19.972Z,101310.99
2019-04-10T18:18:46.944Z,101314.50
2019-04-10T18:21:14.785Z,101311.76
2019-04-10T18:23:41.913Z,101318.13
2019-04-10T18:26:08.705Z,101316.86
2019-04-10T18:28:35.432Z,101323.22
2019-04-10T18:31:02.809Z,101328.83
2019-04-10T18:33:28.795Z,101339.56
2019-04-10T18:35:55.329Z,101340.46
2019-04-10T18:38:21.654Z,101345.37
2019-04-10T18:40:58.002Z,101349.51
2019-04-10T18:43:16.051Z,101351.84
2019-04-10T18:45:53.943Z,101356.27
2019-04-10T18:48:10.354Z,101355.80
2019-04-10T18:50:36.384Z,101356.94
2019-04-10T18:53:03.617Z,101362.63
2019-04-10T18:55:30.078Z,101367.74
2019-04-10T18:57:56.922Z,101365.33
2019-04-10T19:00:48.501Z,101371.31
2019-04-10T19:03:25.551Z,101370.97
2019-04-10T19:05:54.775Z,101377.49
2019-04-10T19:08:21.786Z,101377.73
2019-04-10T19:10:47.817Z,101385.77
2019-04-10T19:13:15.090Z,101377.85
2019-04-10T19:15:41.717Z,101389.37
2019-04-10T19:18:07.815Z,101389.30
2019-04-10T19:20:35.347Z,101395.02
2019-04-10T19:23:01.499Z,101396.00
2019-04-10T19:25:27.995Z,101394.84
2019-04-10T19:27:54.035Z,101403.05
2019-04-10T19:30:41.562Z,101401.73
2019-04-10T19:33:08.001Z,101406.79
2019-04-10T19:35:35.113Z,101407.67
2019-04-10T19:38:01.457Z,101406.05
2019-04-10T19:40:27.794Z,101410.88
2019-04-10T19:42:54.103Z,101415.65
2019-04-10T19:45:19.892Z,101415.23
2019-04-10T19:47:46.356Z,101415.63
2019-04-10T19:50:13.054Z,101420.53
2019-04-10T19:52:39.073Z,101420.20
2019-04-10T19:55:07.283Z,101433.84
2019-04-10T19:57:33.219Z,101432.23
2019-04-10T19:59:59.961Z,101432.81
2019-04-10T20:02:26.709Z,101437.30
2019-04-10T20:04:52.876Z,101439.38
2019-04-10T20:07:20.982Z,101439.88
2019-04-10T20:09:46.843Z,101438.08
2019-04-10T20:12:12.858Z,101443.95
2019-04-10T20:14:39.360Z,101433.95
2019-04-10T20:17:05.958Z,101443.91
2019-04-10T20:19:32.902Z,101442.89
2019-04-10T20:21:58.742Z,101441.50
2019-04-10T20:24:25.193Z,101449.80
2019-04-10T20:26:51.808Z,101448.39
2019-04-10T20:29:19.182Z,101444.95
2019-04-10T20:31:47.767Z,101451.84
2019-04-10T20:34:13.867Z,101454.59
2019-04-10T20:36:40.110Z,101457.52
2019-04-10T20:39:09.325Z,101458.72
2019-04-10T20:41:47.601Z,101467.31
2019-04-10T20:44:03.728Z,101467.30
2019-04-10T20:46:30.523Z,101474.36
2019-04-10T20:48:57.157Z,101472.83
2019-04-10T20:51:23.234Z,101478.33
2019-04-10T20:53:48.933Z,101473.85
2019-04-10T20:56:16.667Z,101481.25
2019-04-10T20:58:42.416Z,101482.44
2019-04-10T21:01:08.375Z,101490.87
2019-04-10T21:03:33.960Z,101487.75
2019-04-10T21:06:00.383Z,101496.91
2019-04-10T21:08:26.283Z,101496.51
2019-04-10T21:10:51.725Z,101499.27
2019-04-10T21:13:17.166Z,101502.00
2019-04-10T21:15:42.616Z,101503.02
2019-04-10T21:18:08.176Z,101502.31
2019-04-10T21:20:34.553Z,101507.50
2019-04-10T21:23:01.375Z,101499.44
2019-04-10T21:25:27.437Z,101509.61
2019-04-10T21:27:54.650Z,101512.81
2019-04-10T21:30:31.939Z,101512.44
2019-04-10T21:33:10.014Z,101515.30
2019-04-10T21:35:37.125Z,101517.89
2019-04-10T21:38:02.727Z,101521.73
2019-04-10T21:40:28.121Z,101521.92
2019-04-10T21:42:53.972Z,101523.78
2019-04-10T21:45:20.158Z,101526.36
2019-04-10T21:47:46.055Z,101536.53
2019-04-10T21:50:11.736Z,101525.70
2019-04-10T21:52:37.294Z,101541.83
2019-04-10T21:55:02.790Z,101536.66
2019-04-10T21:57:28.469Z,101542.82
2019-04-10T21:59:53.906Z,101535.45
2019-04-10T22:02:20.002Z,101534.97
2019-04-10T22:04:46.226Z,101535.27
2019-04-10T22:07:27.843Z,101533.01
2019-04-10T22:10:13.608Z,101528.75
2019-04-10T22:12:43.761Z,101537.95
2019-04-10T22:15:20.418Z,101531.55
2019-04-10T22:17:45.880Z,101544.00
2019-04-10T22:20:11.743Z,101530.23
2019-04-10T22:22:37.234Z,101541.77
2019-04-10T22:25:03.392Z,101541.17
2019-04-10T22:27:29.604Z,101542.44
2019-04-10T22:29:56.281Z,101547.56
2019-04-10T22:32:22.693Z,101546.31
2019-04-10T22:34:48.497Z,101553.50
2019-04-10T22:37:16.297Z,101554.48
2019-04-10T22:39:41.810Z,101557.30
2019-04-10T22:42:07.595Z,101551.00
2019-04-10T22:44:40.887Z,101549.55
2019-04-10T22:47:02.976Z,101548.90
2019-04-10T22:49:28.797Z,101554.75
2019-04-10T22:51:54.187Z,101559.88
2019-04-10T22:54:19.918Z,101558.41
2019-04-10T22:56:45.657Z,101557.58
2019-04-10T22:59:11.155Z,101550.38
2019-04-10T23:01:37.558Z,101558.41
2019-04-10T23:04:03.798Z,101558.94
2019-04-10T23:06:29.342Z,101558.02
2019-04-10T23:08:55.830Z,101574.48
2019-04-10T23:11:33.018Z,101561.58
2019-04-10T23:13:50.004Z,101565.09
2019-04-10T23:16:16.899Z,101567.69
2019-04-10T23:18:42.591Z,101569.13
2019-04-10T23:21:08.220Z,101566.84
2019-04-10T23:23:34.808Z,101571.48
2019-04-10T23:26:00.629Z,101572.40
2019-04-10T23:28:27.244Z,101581.02
2019-04-10T23:30:52.992Z,101583.95
2019-04-10T23:33:19.651Z,101584.56
2019-04-10T23:35:45.436Z,101591.47
2019-04-10T23:38:11.079Z,101589.94
2019-04-10T23:40:36.855Z,101590.09
2019-04-10T23:43:10.771Z,101589.91
2019-04-10T23:45:29.558Z,101584.19
2019-04-10T23:47:56.087Z,101584.05
2019-04-10T23:50:21.851Z,101589.63
2019-04-10T23:52:47.924Z,101592.38
2019-04-10T23:55:13.703Z,101589.05
2019-04-10T23:57:39.161Z,101597.20
